createdAt,value
2022-09-15T00:00:54.480Z,100046.66
2022-09-15T00:03:23.909Z,100042.28
2022-09-15T00:05:53.803Z,100040.91
2022-09-15T00:08:21.646Z,100049.13
2022-09-15T00:10:50.804Z,100048.03
2022-09-15T00:13:19.542Z,100044.00
2022-09-15T00:15:48.878Z,100045.38
2022-09-15T00:18:16.954Z,100044.56
2022-09-15T00:20:46.497Z,100034.97
2022-09-15T00:23:16.445Z,100032.59
2022-09-15T00:25:45.872Z,100032.28
2022-09-15T00:28:15.476Z,100034.78
2022-09-15T00:30:44.136Z,100025.16
2022-09-15T00:33:14.582Z,100028.56
2022-09-15T00:35:44.411Z,100021.75
2022-09-15T00:38:13.803Z,100034.13
2022-09-15T00:40:47.002Z,100031.88
2022-09-15T00:43:16.240Z,100036.41
2022-09-15T00:45:45.031Z,100044.47
2022-09-15T00:48:18.395Z,100043.31
2022-09-15T00:50:49.939Z,100034.97
2022-09-15T00:53:20.050Z,100034.03
2022-09-15T00:55:50.613Z,100041.97
2022-09-15T00:58:24.385Z,100039.91
2022-09-15T01:00:56.390Z,100039.09
2022-09-15T01:03:27.181Z,100031.25
2022-09-15T01:06:00.996Z,100042.06
2022-09-15T01:08:34.107Z,100042.56
2022-09-15T01:11:02.619Z,100033.44
2022-09-15T01:13:30.717Z,100030.72
2022-09-15T01:16:06.800Z,100039.03
2022-09-15T01:18:47.970Z,100040.19
2022-09-15T01:21:23.094Z,100039.88
2022-09-15T01:24:27.447Z,100048.13
2022-09-15T01:27:13.676Z,100046.94
2022-09-15T01:30:08.136Z,100051.34
2022-09-15T01:33:06.678Z,100050.84
2022-09-15T01:35:44.386Z,100054.03
2022-09-15T01:38:18.254Z,100050.50
2022-09-15T01:41:01.225Z,100049.00
2022-09-15T01:43:30.915Z,100040.94
2022-09-15T01:46:03.097Z,100049.50
2022-09-15T01:48:34.678Z,100041.75
2022-09-15T01:51:04.845Z,100047.50
2022-09-15T01:53:34.164Z,100048.50
2022-09-15T01:56:05.942Z,100042.28
2022-09-15T01:58:34.521Z,100037.56
2022-09-15T02:01:08.552Z,100049.03
2022-09-15T02:03:44.595Z,100044.09
2022-09-15T02:06:19.237Z,100051.34
2022-09-15T02:08:54.666Z,100052.72
2022-09-15T02:11:25.792Z,100035.53
2022-09-15T02:14:00.623Z,100041.56
2022-09-15T02:16:34.647Z,100041.56
2022-09-15T02:19:11.296Z,100049.19
2022-09-15T02:21:48.263Z,100052.72
2022-09-15T02:24:20.100Z,100045.47
2022-09-15T02:26:51.125Z,100049.50
2022-09-15T02:29:21.807Z,100030.41
2022-09-15T02:31:55.021Z,100025.56
2022-09-15T02:34:25.821Z,100039.91
2022-09-15T02:36:55.496Z,100050.50
2022-09-15T02:39:28.618Z,100046.00
2022-09-15T02:41:56.437Z,100046.00
2022-09-15T02:44:24.358Z,100045.00
2022-09-15T02:46:53.525Z,100053.41
2022-09-15T02:49:21.326Z,100048.53
2022-09-15T02:51:49.733Z,100050.06
2022-09-15T02:54:17.527Z,100049.38
2022-09-15T02:56:45.426Z,100048.88
2022-09-15T02:59:13.268Z,100057.16
2022-09-15T03:01:41.204Z,100059.31
2022-09-15T03:04:10.433Z,100057.78
2022-09-15T03:06:38.277Z,100050.38
2022-09-15T03:09:08.700Z,100057.16
2022-09-15T03:11:37.579Z,100054.06
2022-09-15T03:14:08.150Z,100053.41
2022-09-15T03:16:36.917Z,100049.72
2022-09-15T03:19:05.729Z,100049.34
2022-09-15T03:21:35.727Z,100042.47
2022-09-15T03:24:03.601Z,100041.97
2022-09-15T03:26:31.404Z,100042.97
2022-09-15T03:28:59.296Z,100044.97
2022-09-15T03:31:27.137Z,100051.38
2022-09-15T03:33:56.163Z,100051.56
2022-09-15T03:36:24.119Z,100047.00
2022-09-15T03:38:53.496Z,100047.81
2022-09-15T03:41:21.321Z,100052.19
2022-09-15T03:43:49.292Z,100053.38
2022-09-15T03:46:17.940Z,100059.13
2022-09-15T03:48:47.452Z,100056.41
2022-09-15T03:51:15.736Z,100052.72
2022-09-15T03:53:44.048Z,100052.56
2022-09-15T03:56:22.813Z,100045.97
2022-09-15T03:58:51.048Z,100049.66
2022-09-15T04:01:19.970Z,100045.59
2022-09-15T04:03:51.150Z,100046.78
2022-09-15T04:06:20.071Z,100052.69
2022-09-15T04:08:48.026Z,100049.47
2022-09-15T04:11:18.292Z,100048.97
2022-09-15T04:13:46.999Z,100044.25
2022-09-15T04:16:16.348Z,100048.63
2022-09-15T04:18:44.772Z,100046.78
2022-09-15T04:21:15.098Z,100055.38
2022-09-15T04:23:44.298Z,100048.63
2022-09-15T04:26:16.588Z,100050.31
2022-09-15T04:28:45.786Z,100051.84
2022-09-15T04:31:15.543Z,100052.78
2022-09-15T04:33:45.104Z,100046.94
2022-09-15T04:36:14.602Z,100048.13
2022-09-15T04:38:42.759Z,100045.28
2022-09-15T04:41:11.761Z,100039.53
2022-09-15T04:43:39.825Z,100040.72
2022-09-15T04:46:09.201Z,100047.94
2022-09-15T04:48:37.745Z,100037.22
2022-09-15T04:51:07.568Z,100037.91
2022-09-15T04:53:36.040Z,100036.16
2022-09-15T04:56:05.274Z,100040.06
2022-09-15T04:58:37.563Z,100039.22
2022-09-15T05:01:13.315Z,100040.44
2022-09-15T05:03:41.636Z,100050.84
2022-09-15T05:06:11.627Z,100043.59
2022-09-15T05:08:39.675Z,100042.44
2022-09-15T05:11:09.808Z,100046.97
2022-09-15T05:13:38.532Z,100043.28
2022-09-15T05:16:08.108Z,100044.59
2022-09-15T05:18:37.349Z,100046.13
2022-09-15T05:21:06.880Z,100041.28
2022-09-15T05:23:35.675Z,100049.88
2022-09-15T05:26:05.458Z,100044.31
2022-09-15T05:28:34.488Z,100043.28
2022-09-15T05:31:02.513Z,100042.28
2022-09-15T05:33:30.372Z,100032.34
2022-09-15T05:36:00.840Z,100039.44
2022-09-15T05:38:31.368Z,100042.63
2022-09-15T05:41:03.754Z,100045.28
2022-09-15T05:43:32.541Z,100051.03
2022-09-15T05:46:00.336Z,100040.25
2022-09-15T05:48:29.067Z,100052.72
2022-09-15T05:50:57.492Z,100046.50
2022-09-15T05:53:27.623Z,100057.28
2022-09-15T05:55:56.635Z,100055.41
2022-09-15T05:58:24.891Z,100054.94
2022-09-15T06:00:53.269Z,100048.34
2022-09-15T06:03:22.209Z,100043.97
2022-09-15T06:05:50.310Z,100057.25
2022-09-15T06:08:18.138Z,100054.25
2022-09-15T06:10:47.379Z,100060.81
2022-09-15T06:13:15.382Z,100052.06
2022-09-15T06:15:43.351Z,100053.59
2022-09-15T06:18:11.220Z,100054.75
2022-09-15T06:20:39.007Z,100054.06
2022-09-15T06:23:06.778Z,100053.38
2022-09-15T06:25:35.171Z,100049.69
2022-09-15T06:28:04.514Z,100056.06
2022-09-15T06:30:32.319Z,100050.50
2022-09-15T06:33:00.164Z,100055.38
2022-09-15T06:35:27.977Z,100048.28
2022-09-15T06:37:55.769Z,100051.13
2022-09-15T06:40:23.639Z,100052.44
2022-09-15T06:42:56.468Z,100052.94
2022-09-15T06:45:25.853Z,100047.75
2022-09-15T06:48:13.345Z,100052.31
2022-09-15T06:50:41.649Z,100049.50
2022-09-15T06:53:09.565Z,100040.78
2022-09-15T06:55:37.678Z,100048.56
2022-09-15T06:58:05.548Z,100052.00
2022-09-15T07:00:34.841Z,100051.13
2022-09-15T07:03:02.816Z,100054.16
2022-09-15T07:05:31.015Z,100051.13
2022-09-15T07:07:58.902Z,100055.13
2022-09-15T07:10:26.724Z,100051.81
2022-09-15T07:12:55.475Z,100061.75
2022-09-15T07:15:25.929Z,100064.47
2022-09-15T07:17:55.357Z,100077.13
2022-09-15T07:20:23.188Z,100076.97
2022-09-15T07:22:51.055Z,100074.16
2022-09-15T07:25:18.868Z,100075.19
2022-09-15T07:27:46.673Z,100079.34
2022-09-15T07:30:15.100Z,100089.44
2022-09-15T07:32:43.018Z,100078.53
2022-09-15T07:35:12.603Z,100082.31
2022-09-15T07:37:40.407Z,100085.84
2022-09-15T07:40:09.611Z,100090.34
2022-09-15T07:42:37.615Z,100092.69
2022-09-15T07:45:06.244Z,100089.94
2022-09-15T07:47:34.027Z,100090.94
2022-09-15T07:50:01.874Z,100093.66
2022-09-15T07:52:31.111Z,100099.81
2022-09-15T07:54:59.015Z,100098.22
2022-09-15T07:57:27.468Z,100094.88
2022-09-15T07:59:55.265Z,100097.91
2022-09-15T08:02:23.294Z,100099.19
2022-09-15T08:04:51.149Z,100098.13
2022-09-15T08:07:19.019Z,100096.06
2022-09-15T08:09:48.340Z,100099.56
2022-09-15T08:12:16.504Z,100102.38
2022-09-15T08:14:44.324Z,100097.97
2022-09-15T08:17:12.170Z,100097.59
2022-09-15T08:19:40.021Z,100097.16
2022-09-15T08:22:07.957Z,100087.38
2022-09-15T08:24:37.335Z,100083.59
2022-09-15T08:27:06.748Z,100093.72
2022-09-15T08:29:34.598Z,100089.72
2022-09-15T08:32:02.817Z,100094.78
2022-09-15T08:34:30.973Z,100083.50
2022-09-15T08:36:58.805Z,100094.78
2022-09-15T08:39:26.669Z,100090.13
2022-09-15T08:41:55.910Z,100098.16
2022-09-15T08:44:37.318Z,100102.94
2022-09-15T08:47:11.437Z,100099.09
2022-09-15T08:49:51.834Z,100103.84
2022-09-15T08:52:24.303Z,100099.81
2022-09-15T08:54:58.078Z,100108.06
2022-09-15T08:57:26.881Z,100101.81
2022-09-15T08:59:59.061Z,100089.84
2022-09-15T09:03:00.463Z,100098.25
2022-09-15T09:05:36.947Z,100090.66
2022-09-15T09:08:28.261Z,100100.22
2022-09-15T09:11:01.956Z,100105.81
2022-09-15T09:13:38.471Z,100101.50
2022-09-15T09:16:35.673Z,100098.63
2022-09-15T09:19:17.266Z,100094.13
2022-09-15T09:21:49.140Z,100096.69
2022-09-15T09:24:18.800Z,100098.53
2022-09-15T09:26:51.195Z,100095.28
2022-09-15T09:29:20.913Z,100093.78
2022-09-15T09:31:53.117Z,100095.56
2022-09-15T09:34:29.025Z,100091.84
2022-09-15T09:37:00.548Z,100081.84
2022-09-15T09:39:29.260Z,100073.56
2022-09-15T09:41:57.375Z,100094.72
2022-09-15T09:44:31.771Z,100087.41
2022-09-15T09:47:02.829Z,100084.31
2022-09-15T09:49:35.358Z,100078.16
2022-09-15T09:52:04.629Z,100080.56
2022-09-15T09:54:34.339Z,100077.66
2022-09-15T09:57:28.347Z,100082.03
2022-09-15T09:59:56.965Z,100085.44
2022-09-15T10:02:27.573Z,100078.97
2022-09-15T10:05:13.403Z,100079.28
2022-09-15T10:07:44.659Z,100069.72
2022-09-15T10:10:21.454Z,100078.56
2022-09-15T10:12:50.553Z,100078.56
2022-09-15T10:15:24.273Z,100082.91
2022-09-15T10:17:55.309Z,100087.47
2022-09-15T10:20:32.476Z,100090.66
2022-09-15T10:23:06.291Z,100083.00
2022-09-15T10:25:57.650Z,100083.97
2022-09-15T10:28:26.736Z,100081.88
2022-09-15T10:31:06.304Z,100076.13
2022-09-15T10:33:37.074Z,100078.84
2022-09-15T10:36:08.300Z,100087.66
2022-09-15T10:38:42.397Z,100082.44
2022-09-15T10:41:22.095Z,100079.28
2022-09-15T10:44:03.019Z,100066.88
2022-09-15T10:46:42.030Z,100057.50
2022-09-15T10:49:28.322Z,100063.78
2022-09-15T10:52:08.462Z,100073.66
2022-09-15T10:54:50.180Z,100063.88
2022-09-15T10:57:36.182Z,100076.53
2022-09-15T11:00:07.941Z,100078.34
2022-09-15T11:03:06.736Z,100071.28
2022-09-15T11:05:45.809Z,100065.94
2022-09-15T11:08:35.532Z,100068.66
2022-09-15T11:11:10.574Z,100076.06
2022-09-15T11:13:53.411Z,100078.84
2022-09-15T11:16:34.722Z,100082.19
2022-09-15T11:19:14.937Z,100077.38
2022-09-15T11:21:48.921Z,100074.72
2022-09-15T11:24:31.101Z,100079.44
2022-09-15T11:27:03.466Z,100078.97
2022-09-15T11:29:42.326Z,100064.31
2022-09-15T11:32:16.789Z,100057.78
2022-09-15T11:34:50.310Z,100047.44
2022-09-15T11:37:25.133Z,100063.63
2022-09-15T11:40:00.000Z,100056.94
2022-09-15T11:42:35.816Z,100063.44
2022-09-15T11:45:04.580Z,100064.56
2022-09-15T11:47:37.457Z,100071.00
2022-09-15T11:50:16.491Z,100080.50
2022-09-15T11:52:55.019Z,100081.06
2022-09-15T11:55:31.890Z,100082.19
2022-09-15T11:58:16.323Z,100083.88
2022-09-15T12:00:55.319Z,100071.81
2022-09-15T12:03:28.415Z,100071.84
2022-09-15T12:06:00.873Z,100079.53
2022-09-15T12:08:36.121Z,100072.81
2022-09-15T12:11:09.035Z,100076.47
2022-09-15T12:13:38.654Z,100078.59
2022-09-15T12:16:07.307Z,100075.88
2022-09-15T12:18:46.185Z,100074.25
2022-09-15T12:21:21.215Z,100085.03
2022-09-15T12:23:57.057Z,100083.72
2022-09-15T12:26:27.365Z,100078.16
2022-09-15T12:28:57.897Z,100072.22
2022-09-15T12:31:39.784Z,100074.56
2022-09-15T12:34:35.613Z,100079.47
2022-09-15T12:37:14.034Z,100080.88
2022-09-15T12:39:44.486Z,100084.59
2022-09-15T12:42:17.946Z,100076.88
2022-09-15T12:44:48.885Z,100073.34
2022-09-15T12:47:29.376Z,100078.97
2022-09-15T12:50:02.446Z,100067.88
2022-09-15T12:52:30.796Z,100065.09
2022-09-15T12:55:03.176Z,100064.00
2022-09-15T12:57:35.470Z,100070.47
2022-09-15T13:00:42.327Z,100063.38
2022-09-15T13:03:29.377Z,100062.53
2022-09-15T13:06:19.717Z,100054.22
2022-09-15T13:08:55.419Z,100071.56
2022-09-15T13:11:34.391Z,100059.34
2022-09-15T13:14:15.012Z,100059.50
2022-09-15T13:16:53.779Z,100048.00
2022-09-15T13:19:25.414Z,100055.72
2022-09-15T13:21:59.977Z,100048.00
2022-09-15T13:24:45.176Z,100051.22
2022-09-15T13:27:17.431Z,100054.28
2022-09-15T13:29:49.634Z,100052.84
2022-09-15T13:32:30.280Z,100055.69
2022-09-15T13:35:28.464Z,100062.16
2022-09-15T13:38:29.128Z,100055.75
2022-09-15T13:41:26.407Z,100038.78
2022-09-15T13:44:32.643Z,100038.97
2022-09-15T13:47:16.149Z,100050.78
2022-09-15T13:50:04.517Z,100029.59
2022-09-15T13:53:09.751Z,100036.06
2022-09-15T13:55:39.409Z,100034.16
2022-09-15T14:01:02.174Z,100028.06
2022-09-15T14:03:40.453Z,100024.47
2022-09-15T14:06:14.803Z,100029.03
2022-09-15T14:08:44.946Z,100032.16
2022-09-15T14:11:16.085Z,100027.97
2022-09-15T14:13:47.776Z,100035.31
2022-09-15T14:16:40.826Z,100027.97
2022-09-15T14:19:33.287Z,100019.28
2022-09-15T14:22:02.000Z,100034.91
2022-09-15T14:24:31.417Z,100024.59
2022-09-15T14:27:03.354Z,100024.91
2022-09-15T14:29:31.282Z,100022.69
2022-09-15T14:32:02.039Z,100026.69
2022-09-15T14:34:36.455Z,100031.59
2022-09-15T14:37:08.224Z,100020.31
2022-09-15T14:39:37.646Z,100038.81
2022-09-15T14:42:21.745Z,100036.75
2022-09-15T14:47:39.814Z,100037.66
2022-09-15T14:50:13.546Z,100034.41
2022-09-15T14:52:44.705Z,100035.44
2022-09-15T14:55:18.903Z,100020.31
2022-09-15T14:57:56.443Z,100031.38
2022-09-15T15:00:30.207Z,100024.72
2022-09-15T15:03:17.527Z,100036.16
2022-09-15T15:06:02.170Z,100034.28
2022-09-15T15:08:37.670Z,100032.88
2022-09-15T15:11:10.691Z,100028.09
2022-09-15T15:13:42.128Z,100041.66
2022-09-15T15:16:19.832Z,100038.53
2022-09-15T15:18:48.114Z,100034.03
2022-09-15T15:21:40.401Z,100030.50
2022-09-15T15:24:26.235Z,100038.44
2022-09-15T15:26:54.056Z,100039.84
2022-09-15T15:29:43.814Z,100048.28
2022-09-15T15:32:14.529Z,100053.06
2022-09-15T15:34:50.007Z,100049.50
2022-09-15T15:37:26.844Z,100065.75
2022-09-15T15:39:55.814Z,100068.78
2022-09-15T15:42:24.882Z,100082.47
2022-09-15T15:45:05.358Z,100082.94
2022-09-15T15:47:36.597Z,100078.53
2022-09-15T15:50:13.972Z,100079.03
2022-09-15T15:52:44.974Z,100084.34
2022-09-15T15:55:17.397Z,100083.94
2022-09-15T15:57:47.515Z,100100.50
2022-09-15T16:00:21.964Z,100089.84
2022-09-15T16:02:50.797Z,100083.00
2022-09-15T16:05:20.592Z,100082.63
2022-09-15T16:07:52.401Z,100102.09
2022-09-15T16:10:22.622Z,100093.81
2022-09-15T16:12:50.668Z,100084.69
2022-09-15T16:15:20.940Z,100093.25
2022-09-15T16:17:49.591Z,100101.78
2022-09-15T16:20:19.630Z,100093.00
2022-09-15T16:22:49.079Z,100089.97
2022-09-15T16:25:20.159Z,100087.25
2022-09-15T16:27:48.061Z,100089.97
2022-09-15T16:30:15.959Z,100099.19
2022-09-15T16:32:43.793Z,100091.56
2022-09-15T16:35:25.079Z,100091.06
2022-09-15T16:37:54.288Z,100101.44
2022-09-15T16:40:22.185Z,100095.47
2022-09-15T16:42:50.098Z,100090.78
2022-09-15T16:45:26.303Z,100094.00
2022-09-15T16:47:54.205Z,100096.25
2022-09-15T16:50:21.972Z,100101.22
2022-09-15T16:52:50.407Z,100103.28
2022-09-15T16:55:24.744Z,100107.78
2022-09-15T16:57:52.806Z,100107.28
2022-09-15T17:00:20.646Z,100113.25
2022-09-15T17:02:48.519Z,100110.34
2022-09-15T17:05:20.407Z,100105.72
2022-09-15T17:07:48.397Z,100107.53
2022-09-15T17:10:16.908Z,100101.84
2022-09-15T17:12:46.110Z,100098.22
2022-09-15T17:15:20.660Z,100101.09
2022-09-15T17:17:49.411Z,100104.00
2022-09-15T17:20:17.722Z,100101.78
2022-09-15T17:22:45.590Z,100097.75
2022-09-15T17:25:26.616Z,100105.22
2022-09-15T17:27:56.701Z,100094.75
2022-09-15T17:30:27.075Z,100108.34
2022-09-15T17:33:02.793Z,100126.06
2022-09-15T17:35:33.804Z,100122.53
2022-09-15T17:38:02.092Z,100118.41
2022-09-15T17:40:30.387Z,100122.09
2022-09-15T17:43:00.620Z,100115.22
2022-09-15T17:45:31.954Z,100108.44
2022-09-15T17:48:00.278Z,100114.88
2022-09-15T17:50:30.195Z,100118.53
2022-09-15T17:52:58.528Z,100123.31
2022-09-15T17:55:28.530Z,100124.84
2022-09-15T17:57:57.853Z,100131.03
2022-09-15T18:00:29.461Z,100127.19
2022-09-15T18:02:59.400Z,100130.06
2022-09-15T18:05:28.976Z,100139.19
2022-09-15T18:07:58.476Z,100129.41
2022-09-15T18:10:27.854Z,100141.56
2022-09-15T18:12:56.488Z,100133.34
2022-09-15T18:15:26.155Z,100142.31
2022-09-15T18:17:57.168Z,100139.97
2022-09-15T18:20:26.945Z,100140.41
2022-09-15T18:22:55.323Z,100136.06
2022-09-15T18:25:28.273Z,100139.88
2022-09-15T18:27:56.906Z,100139.44
2022-09-15T18:30:27.445Z,100137.44
2022-09-15T18:32:56.685Z,100143.16
2022-09-15T18:35:25.081Z,100147.53
2022-09-15T18:37:57.069Z,100154.97
2022-09-15T18:40:25.721Z,100155.81
2022-09-15T18:42:54.148Z,100166.13
2022-09-15T18:45:21.922Z,100168.31
2022-09-15T18:47:50.883Z,100173.91
2022-09-15T18:50:21.652Z,100167.13
2022-09-15T18:52:50.018Z,100165.25
2022-09-15T18:55:19.678Z,100160.06
2022-09-15T18:57:48.260Z,100154.78
2022-09-15T19:00:18.325Z,100155.84
2022-09-15T19:02:46.464Z,100166.97
2022-09-15T19:05:15.552Z,100160.84
2022-09-15T19:07:45.299Z,100166.59
2022-09-15T19:10:16.226Z,100172.66
2022-09-15T19:12:44.724Z,100159.16
2022-09-15T19:15:13.927Z,100153.69
2022-09-15T19:17:42.610Z,100160.16
2022-09-15T19:20:13.580Z,100167.25
2022-09-15T19:22:41.530Z,100158.13
2022-09-15T19:25:12.616Z,100159.16
2022-09-15T19:27:41.190Z,100153.78
2022-09-15T19:30:10.957Z,100162.06
2022-09-15T19:32:40.012Z,100156.69
2022-09-15T19:35:11.287Z,100156.16
2022-09-15T19:37:40.178Z,100162.19
2022-09-15T19:40:12.099Z,100159.84
2022-09-15T19:42:40.922Z,100152.44
2022-09-15T19:45:11.092Z,100157.50
2022-09-15T19:47:39.877Z,100164.75
2022-09-15T19:50:09.309Z,100163.56
2022-09-15T19:52:37.367Z,100171.34
2022-09-15T19:55:06.744Z,100161.56
2022-09-15T19:57:39.179Z,100158.53
2022-09-15T20:00:09.151Z,100164.91
2022-09-15T20:02:37.175Z,100157.72
2022-09-15T20:05:05.561Z,100159.38
2022-09-15T20:07:33.869Z,100169.34
2022-09-15T20:10:02.004Z,100168.34
2022-09-15T20:12:31.118Z,100168.34
2022-09-15T20:15:00.340Z,100174.75
2022-09-15T20:17:28.397Z,100180.81
2022-09-15T20:19:56.496Z,100182.84
2022-09-15T20:22:24.299Z,100187.59
2022-09-15T20:24:52.172Z,100179.81
2022-09-15T20:27:19.989Z,100187.22
2022-09-15T20:29:47.798Z,100183.19
2022-09-15T20:32:16.974Z,100188.41
2022-09-15T20:34:44.793Z,100202.41
2022-09-15T20:37:12.771Z,100198.19
2022-09-15T20:39:40.917Z,100198.19
2022-09-15T20:42:08.913Z,100196.31
2022-09-15T20:44:36.881Z,100197.50
2022-09-15T20:47:04.825Z,100198.03
2022-09-15T20:49:34.309Z,100192.97
2022-09-15T20:52:02.328Z,100195.66
2022-09-15T20:54:30.101Z,100192.94
2022-09-15T20:56:57.916Z,100191.28
2022-09-15T20:59:25.968Z,100192.63
2022-09-15T21:01:53.947Z,100201.72
2022-09-15T21:04:21.809Z,100203.69
2022-09-15T21:06:51.041Z,100198.00
2022-09-15T21:09:19.202Z,100197.78
2022-09-15T21:11:51.427Z,100195.75
2022-09-15T21:14:21.112Z,100199.81
2022-09-15T21:16:48.961Z,100207.44
2022-09-15T21:19:17.333Z,100205.03
2022-09-15T21:21:45.614Z,100209.13
2022-09-15T21:24:14.791Z,100198.28
2022-09-15T21:26:57.575Z,100208.75
2022-09-15T21:29:26.363Z,100195.44
2022-09-15T21:31:55.698Z,100201.81
2022-09-15T21:34:23.866Z,100203.03
2022-09-15T21:36:53.456Z,100202.34
2022-09-15T21:39:22.716Z,100200.38
2022-09-15T21:41:50.848Z,100204.06
2022-09-15T21:44:18.660Z,100204.72
2022-09-15T21:46:47.193Z,100215.88
2022-09-15T21:49:15.039Z,100217.28
2022-09-15T21:51:42.969Z,100214.47
2022-09-15T21:54:11.152Z,100219.31
2022-09-15T21:56:40.952Z,100223.16
2022-09-15T21:59:09.332Z,100225.06
2022-09-15T22:01:37.835Z,100222.16
2022-09-15T22:04:08.095Z,100230.91
2022-09-15T22:06:40.230Z,100231.22
2022-09-15T22:09:10.247Z,100231.38
2022-09-15T22:11:40.207Z,100234.00
2022-09-15T22:14:09.421Z,100244.47
2022-09-15T22:16:38.917Z,100244.44
2022-09-15T22:19:07.924Z,100243.56
2022-09-15T22:21:36.996Z,100240.25
2022-09-15T22:24:07.003Z,100243.72
2022-09-15T22:26:36.442Z,100236.94
2022-09-15T22:29:06.585Z,100247.28
2022-09-15T22:31:35.242Z,100243.88
2022-09-15T22:34:03.310Z,100242.91
2022-09-15T22:36:31.846Z,100246.03
2022-09-15T22:39:04.561Z,100247.41
2022-09-15T22:41:34.199Z,100246.97
2022-09-15T22:44:01.981Z,100242.53
2022-09-15T22:46:31.220Z,100245.06
2022-09-15T22:48:59.052Z,100240.78
2022-09-15T22:51:27.018Z,100243.50
2022-09-15T22:53:57.101Z,100250.56
2022-09-15T22:56:26.261Z,100246.25
2022-09-15T22:58:55.210Z,100244.22
2022-09-15T23:01:25.371Z,100246.03
2022-09-15T23:03:55.896Z,100240.47
2022-09-15T23:06:25.117Z,100249.88
2022-09-15T23:08:53.551Z,100245.72
2022-09-15T23:11:21.621Z,100244.78
2022-09-15T23:13:50.651Z,100249.66
2022-09-15T23:16:18.783Z,100244.50
2022-09-15T23:18:47.000Z,100243.56
2022-09-15T23:21:16.238Z,100238.66
2022-09-15T23:23:47.626Z,100236.69
2022-09-15T23:26:17.120Z,100244.00
2022-09-15T23:28:44.938Z,100236.81
2022-09-15T23:31:13.998Z,100241.94
2022-09-15T23:33:42.986Z,100248.25
2022-09-15T23:36:13.705Z,100248.88
2022-09-15T23:38:44.750Z,100240.88
2022-09-15T23:41:13.945Z,100246.13
2022-09-15T23:43:41.935Z,100247.22
2022-09-15T23:46:10.450Z,100244.69
2022-09-15T23:48:38.817Z,100244.97
2022-09-15T23:51:07.276Z,100252.00
2022-09-15T23:53:35.642Z,100248.06
2022-09-15T23:56:05.123Z,100246.81
2022-09-15T23:58:32.979Z,100250.31
